createdAt,value
2018-06-29T00:00:08.881Z,2.47
2018-06-29T00:02:37.221Z,2.70
2018-06-29T00:05:06.286Z,2.83
2018-06-29T00:07:34.419Z,2.80
2018-06-29T00:10:02.774Z,3.00
2018-06-29T00:12:31.101Z,2.77
2018-06-29T00:14:59.182Z,2.80
2018-06-29T00:17:28.087Z,2.63
2018-06-29T00:19:56.447Z,2.80
2018-06-29T00:22:25.598Z,2.90
2018-06-29T00:24:53.958Z,3.20
2018-06-29T00:27:22.282Z,2.90
2018-06-29T00:29:50.674Z,2.93
2018-06-29T00:32:19.109Z,3.00
2018-06-29T00:34:48.465Z,3.43
2018-06-29T00:37:17.285Z,3.43
2018-06-29T00:39:45.614Z,3.33
2018-06-29T00:42:14.070Z,3.10
2018-06-29T00:44:42.471Z,3.67
2018-06-29T00:47:11.355Z,4.00
2018-06-29T00:49:39.709Z,4.17
2018-06-29T00:52:08.110Z,4.00
2018-06-29T00:54:36.483Z,3.67
2018-06-29T00:57:04.929Z,4.27
2018-06-29T00:59:33.342Z,3.90
2018-06-29T01:02:01.698Z,3.73
2018-06-29T01:04:30.045Z,4.00
2018-06-29T01:06:58.454Z,3.60
2018-06-29T01:09:27.438Z,4.17
2018-06-29T01:11:55.824Z,4.40
2018-06-29T01:14:24.169Z,4.20
2018-06-29T01:16:52.510Z,3.63
2018-06-29T01:19:20.885Z,4.10
2018-06-29T01:21:49.322Z,4.07
2018-06-29T01:24:17.687Z,4.40
2018-06-29T01:26:46.006Z,4.60
2018-06-29T01:29:14.333Z,4.70
2018-06-29T01:31:42.682Z,4.30
2018-06-29T01:34:11.638Z,4.63
2018-06-29T01:36:39.945Z,4.20
2018-06-29T01:39:09.421Z,4.10
2018-06-29T01:41:37.737Z,4.20
2018-06-29T01:44:06.065Z,4.27
2018-06-29T01:46:34.466Z,4.50
2018-06-29T01:49:02.836Z,4.63
2018-06-29T01:51:31.198Z,4.40
2018-06-29T01:53:59.306Z,5.20
2018-06-29T01:56:27.594Z,4.93
2018-06-29T01:58:55.990Z,4.53
2018-06-29T02:01:24.321Z,4.63
2018-06-29T02:03:52.686Z,5.40
2018-06-29T02:06:21.091Z,5.20
2018-06-29T02:08:49.462Z,4.90
2018-06-29T02:11:18.877Z,5.20
2018-06-29T02:13:47.233Z,5.03
2018-06-29T02:16:15.466Z,5.40
2018-06-29T02:18:43.985Z,4.70
2018-06-29T02:21:12.109Z,4.83
2018-06-29T02:23:40.465Z,5.00
2018-06-29T02:26:08.795Z,5.33
2018-06-29T02:28:37.178Z,5.90
2018-06-29T02:31:05.605Z,5.40
2018-06-29T02:33:33.946Z,5.40
2018-06-29T02:36:02.025Z,5.30
2018-06-29T02:38:30.085Z,5.67
2018-06-29T02:40:58.145Z,6.40
2018-06-29T02:43:26.542Z,6.50
2018-06-29T02:45:54.619Z,6.43
2018-06-29T02:48:22.942Z,6.27
2018-06-29T02:50:51.325Z,6.00
2018-06-29T02:53:19.859Z,6.80
2018-06-29T02:55:48.262Z,6.93
2018-06-29T02:58:16.609Z,8.20
2018-06-29T03:00:44.973Z,9.07
2018-06-29T03:03:13.277Z,9.40
2018-06-29T03:05:41.769Z,9.37
2018-06-29T03:08:10.137Z,8.77
2018-06-29T03:10:39.018Z,10.43
2018-06-29T03:13:07.735Z,10.40
2018-06-29T03:15:36.181Z,9.80
2018-06-29T03:18:04.564Z,9.33
2018-06-29T03:20:32.653Z,10.00
2018-06-29T03:23:01.012Z,10.03
2018-06-29T03:25:29.382Z,9.63
2018-06-29T03:27:57.773Z,10.23
2018-06-29T03:30:26.154Z,12.20
2018-06-29T03:32:54.503Z,11.10
2018-06-29T03:35:22.842Z,11.97
2018-06-29T03:37:51.182Z,13.03
2018-06-29T03:40:19.541Z,12.77
2018-06-29T03:42:47.937Z,14.00
2018-06-29T03:45:16.304Z,14.07
2018-06-29T03:47:44.605Z,13.10
2018-06-29T03:50:13.041Z,13.97
2018-06-29T03:52:41.382Z,13.63
2018-06-29T03:55:09.786Z,16.37
2018-06-29T03:57:38.137Z,15.10
2018-06-29T04:00:06.591Z,15.27
2018-06-29T04:02:35.846Z,14.17
2018-06-29T04:05:04.201Z,15.00
2018-06-29T04:07:32.562Z,13.90
2018-06-29T04:10:01.026Z,14.83
2018-06-29T04:12:29.359Z,14.63
2018-06-29T04:14:58.381Z,16.13
2018-06-29T04:17:26.765Z,15.63
2018-06-29T04:19:55.128Z,15.03
2018-06-29T04:22:23.441Z,16.53
2018-06-29T04:24:55.638Z,15.90
2018-06-29T04:27:25.183Z,15.80
2018-06-29T04:29:53.549Z,16.80
2018-06-29T04:32:22.778Z,15.13
2018-06-29T04:34:51.141Z,16.13
2018-06-29T04:37:19.450Z,16.37
2018-06-29T04:39:47.810Z,15.43
2018-06-29T04:42:16.234Z,14.87
2018-06-29T04:44:44.581Z,17.63
2018-06-29T04:47:12.905Z,17.17
2018-06-29T04:49:41.319Z,17.50
2018-06-29T04:52:09.642Z,18.00
2018-06-29T04:54:39.165Z,16.90
2018-06-29T04:57:07.577Z,15.63
2018-06-29T04:59:35.953Z,16.83
2018-06-29T05:02:04.305Z,17.30
2018-06-29T05:04:33.509Z,16.83
2018-06-29T05:07:01.837Z,16.07
2018-06-29T05:09:30.161Z,16.53
2018-06-29T05:11:58.481Z,16.30
2018-06-29T05:14:26.846Z,15.90
2018-06-29T05:16:55.425Z,15.73
2018-06-29T05:19:23.803Z,15.53
2018-06-29T05:21:52.161Z,15.03
2018-06-29T05:24:20.585Z,15.73
2018-06-29T05:26:49.009Z,13.40
2018-06-29T05:29:18.357Z,14.30
2018-06-29T05:31:46.689Z,13.70
2018-06-29T05:34:15.610Z,14.00
2018-06-29T05:36:43.890Z,13.50
2018-06-29T05:39:12.178Z,13.83
2018-06-29T05:41:40.546Z,14.23
2018-06-29T05:44:08.829Z,13.43
2018-06-29T05:46:38.051Z,12.83
2018-06-29T05:49:07.054Z,13.03
2018-06-29T05:51:35.358Z,11.70
2018-06-29T05:54:03.714Z,12.70
2018-06-29T05:56:32.084Z,12.73
2018-06-29T05:59:03.221Z,12.00
2018-06-29T06:01:33.240Z,11.47
2018-06-29T06:04:01.538Z,11.27
2018-06-29T06:06:29.636Z,11.70
2018-06-29T06:08:57.949Z,11.23
2018-06-29T06:11:27.270Z,10.47
2018-06-29T06:13:55.641Z,10.73
2018-06-29T06:16:23.993Z,10.53
2018-06-29T06:21:06.161Z,10.07
2018-06-29T06:23:34.529Z,11.23
2018-06-29T06:26:02.847Z,11.00
2018-06-29T06:28:31.195Z,9.80
2018-06-29T06:30:59.522Z,9.93
2018-06-29T06:33:27.845Z,10.40
2018-06-29T06:35:57.162Z,9.60
2018-06-29T06:38:26.820Z,8.83
2018-06-29T06:40:55.222Z,8.53
2018-06-29T06:43:23.570Z,8.30
2018-06-29T06:45:52.557Z,9.03
2018-06-29T06:48:21.881Z,8.83
2018-06-29T06:50:50.233Z,8.27
2018-06-29T06:53:18.619Z,8.23
2018-06-29T06:55:46.933Z,9.43
2018-06-29T06:58:15.338Z,7.83
2018-06-29T07:00:43.719Z,8.20
2018-06-29T07:03:12.037Z,7.07
2018-06-29T07:05:40.432Z,6.80
2018-06-29T07:08:08.781Z,6.80
2018-06-29T07:10:37.119Z,7.30
2018-06-29T07:13:05.459Z,6.77
2018-06-29T07:15:33.805Z,6.17
2018-06-29T07:18:02.109Z,6.50
2018-06-29T07:20:30.910Z,5.77
2018-06-29T07:22:59.248Z,5.53
2018-06-29T07:25:27.333Z,5.80
2018-06-29T07:27:56.165Z,5.27
2018-06-29T07:30:24.898Z,5.50
2018-06-29T07:32:53.227Z,4.47
2018-06-29T07:35:21.530Z,4.83
2018-06-29T07:37:51.128Z,4.57
2018-06-29T07:40:19.441Z,5.93
2018-06-29T07:42:47.743Z,4.87
2018-06-29T07:45:16.092Z,4.83
2018-06-29T07:47:44.401Z,4.80
2018-06-29T07:50:12.705Z,4.60
2018-06-29T07:52:41.634Z,5.00
2018-06-29T07:55:09.729Z,4.23
2018-06-29T07:57:38.000Z,4.87
2018-06-29T08:00:06.529Z,4.80
2018-06-29T08:02:34.852Z,3.83
2018-06-29T08:05:03.154Z,3.83
2018-06-29T08:07:31.506Z,3.60
2018-06-29T08:09:59.810Z,3.70
2018-06-29T08:12:28.119Z,3.10
2018-06-29T08:14:56.618Z,3.40
2018-06-29T08:17:25.465Z,3.13
2018-06-29T08:19:53.798Z,3.20
2018-06-29T08:22:22.261Z,3.10
2018-06-29T08:25:01.794Z,3.07
2018-06-29T08:27:30.217Z,2.93
2018-06-29T08:29:59.157Z,3.00
2018-06-29T08:32:27.430Z,2.97
2018-06-29T08:34:55.745Z,3.00
2018-06-29T08:37:24.021Z,3.00
2018-06-29T08:39:52.325Z,3.03
2018-06-29T08:42:20.651Z,2.87
2018-06-29T08:44:48.950Z,2.50
2018-06-29T08:47:17.283Z,2.40
2018-06-29T08:49:45.666Z,2.27
2018-06-29T08:52:13.976Z,2.90
2018-06-29T08:54:42.901Z,2.20
2018-06-29T08:57:11.954Z,2.53
2018-06-29T08:59:40.381Z,2.40
2018-06-29T09:02:08.733Z,2.40
2018-06-29T09:04:37.078Z,2.47
2018-06-29T09:07:06.260Z,1.97
2018-06-29T09:09:35.472Z,2.27
2018-06-29T09:12:03.765Z,2.43
2018-06-29T09:14:32.130Z,1.97
2018-06-29T09:17:00.686Z,2.27
2018-06-29T09:19:28.985Z,2.27
2018-06-29T09:21:57.297Z,2.53
2018-06-29T09:24:25.715Z,2.00
2018-06-29T09:26:54.068Z,2.23
2018-06-29T09:29:22.393Z,2.50
2018-06-29T09:31:50.666Z,2.37
2018-06-29T09:34:18.975Z,2.47
2018-06-29T09:36:47.286Z,2.03
2018-06-29T09:39:15.609Z,2.20
2018-06-29T09:41:44.369Z,2.47
2018-06-29T09:44:12.673Z,2.57
2018-06-29T09:46:41.665Z,2.40
2018-06-29T09:49:10.006Z,2.20
2018-06-29T09:51:39.153Z,2.00
2018-06-29T09:54:07.617Z,2.37
2018-06-29T09:56:36.011Z,2.00
2018-06-29T09:59:04.526Z,2.20
2018-06-29T10:01:32.981Z,2.23
2018-06-29T10:04:01.377Z,2.30
2018-06-29T10:06:29.722Z,1.90
2018-06-29T10:08:58.301Z,2.10
2018-06-29T10:11:26.782Z,2.07
2018-06-29T10:13:56.228Z,2.30
2018-06-29T10:16:24.579Z,2.00
2018-06-29T10:18:53.577Z,1.93
2018-06-29T10:21:21.966Z,1.63
2018-06-29T10:23:50.522Z,1.97
2018-06-29T10:26:19.005Z,1.80
2018-06-29T10:28:47.418Z,2.10
2018-06-29T10:31:15.793Z,1.70
2018-06-29T10:33:44.183Z,1.83
2018-06-29T10:36:12.722Z,2.23
2018-06-29T10:38:40.785Z,1.77
2018-06-29T10:41:09.277Z,1.70
2018-06-29T10:43:37.594Z,1.77
2018-06-29T10:46:05.993Z,1.50
2018-06-29T10:48:35.566Z,1.67
2018-06-29T10:51:03.647Z,1.63
2018-06-29T10:53:32.685Z,1.40
2018-06-29T10:56:01.916Z,1.60
2018-06-29T10:58:30.324Z,1.83
2018-06-29T11:00:58.653Z,1.50
2018-06-29T11:03:27.046Z,1.70
2018-06-29T11:05:55.461Z,1.40
2018-06-29T11:08:24.521Z,1.40
2018-06-29T11:10:52.875Z,1.50
2018-06-29T11:13:22.172Z,1.60
2018-06-29T11:15:51.629Z,1.30
2018-06-29T11:18:20.105Z,1.00
2018-06-29T11:20:48.486Z,1.40
2018-06-29T11:23:16.810Z,1.30
2018-06-29T11:25:45.714Z,1.50
2018-06-29T11:28:14.133Z,1.30
2018-06-29T11:30:42.200Z,1.30
2018-06-29T11:33:10.505Z,1.43
2018-06-29T11:35:38.790Z,1.50
2018-06-29T11:38:07.101Z,1.47
2018-06-29T11:40:35.421Z,1.17
2018-06-29T11:43:03.734Z,1.50
2018-06-29T11:45:32.684Z,1.30
2018-06-29T11:48:00.973Z,1.00
2018-06-29T11:50:29.313Z,1.10
2018-06-29T11:52:57.610Z,1.10
2018-06-29T11:55:25.935Z,1.60
2018-06-29T11:57:54.269Z,1.47
2018-06-29T12:00:22.649Z,1.90
2018-06-29T12:02:50.994Z,1.73
2018-06-29T12:05:19.049Z,1.33
2018-06-29T12:07:47.080Z,1.57
2018-06-29T12:10:15.435Z,1.60
2018-06-29T12:12:43.742Z,1.50
2018-06-29T12:15:12.014Z,1.53
2018-06-29T12:17:41.217Z,2.30
2018-06-29T12:20:09.633Z,2.40
2018-06-29T12:22:37.666Z,1.60
2018-06-29T12:25:05.984Z,1.80
2018-06-29T12:27:35.157Z,2.73
2018-06-29T12:30:03.626Z,2.03
2018-06-29T12:32:31.966Z,1.90
2018-06-29T12:35:00.251Z,1.90
2018-06-29T12:37:28.557Z,3.40
2018-06-29T12:39:56.906Z,1.80
2018-06-29T12:42:25.225Z,1.73
2018-06-29T12:44:53.547Z,1.93
2018-06-29T12:47:21.845Z,1.80
2018-06-29T12:49:50.141Z,1.70
2018-06-29T12:52:18.782Z,1.53
2018-06-29T12:54:47.350Z,2.03
2018-06-29T12:57:15.682Z,1.90
2018-06-29T12:59:44.007Z,1.87
2018-06-29T13:02:12.273Z,1.93
2018-06-29T13:04:41.466Z,1.93
2018-06-29T13:07:09.804Z,1.90
2018-06-29T13:09:40.354Z,1.93
2018-06-29T13:12:08.642Z,1.60
2018-06-29T13:14:36.937Z,1.90
2018-06-29T13:17:05.021Z,2.27
2018-06-29T13:19:33.330Z,2.07
2018-06-29T13:22:01.770Z,2.00
2018-06-29T13:24:30.377Z,2.10
2018-06-29T13:26:59.201Z,1.87
2018-06-29T13:29:27.489Z,1.60
2018-06-29T13:31:55.891Z,1.80
2018-06-29T13:34:24.249Z,1.80
2018-06-29T13:36:52.598Z,1.90
2018-06-29T13:39:20.950Z,2.07
2018-06-29T13:41:49.248Z,2.07
2018-06-29T13:44:17.550Z,2.40
2018-06-29T13:46:45.875Z,2.00
2018-06-29T13:49:15.265Z,1.90
2018-06-29T13:51:43.643Z,1.57
2018-06-29T13:54:11.949Z,2.10
2018-06-29T13:56:40.877Z,2.10
2018-06-29T13:59:09.282Z,2.20
2018-06-29T14:01:37.594Z,2.20
2018-06-29T14:04:05.608Z,2.30
2018-06-29T14:06:33.935Z,2.23
2018-06-29T14:09:01.965Z,3.53
2018-06-29T14:11:30.264Z,2.20
2018-06-29T14:13:58.577Z,2.60
2018-06-29T14:16:26.876Z,2.30
2018-06-29T14:18:56.132Z,2.27
2018-06-29T14:21:24.172Z,1.97
2018-06-29T14:23:52.570Z,2.70
2018-06-29T14:26:21.393Z,2.60
2018-06-29T14:28:49.714Z,2.80
2018-06-29T14:31:18.017Z,2.40
2018-06-29T14:33:46.407Z,2.50
2018-06-29T14:36:14.725Z,2.33
2018-06-29T14:38:43.037Z,2.57
2018-06-29T14:41:11.357Z,2.80
2018-06-29T14:43:39.630Z,2.43
2018-06-29T14:46:08.592Z,2.33
2018-06-29T14:48:36.897Z,3.13
2018-06-29T14:51:05.225Z,3.00
2018-06-29T14:53:33.611Z,2.97
2018-06-29T14:56:01.893Z,3.57
2018-06-29T14:58:30.180Z,3.00
2018-06-29T15:00:58.501Z,2.97
2018-06-29T15:03:26.797Z,3.47
2018-06-29T15:05:55.367Z,3.47
2018-06-29T15:08:23.875Z,3.03
2018-06-29T15:10:52.149Z,3.93
2018-06-29T15:13:21.458Z,4.30
2018-06-29T15:15:49.893Z,4.30
2018-06-29T15:18:18.145Z,3.70
2018-06-29T15:20:46.444Z,4.03
2018-06-29T15:23:14.773Z,4.70
2018-06-29T15:25:43.147Z,4.70
2018-06-29T15:28:11.435Z,6.57
2018-06-29T15:30:40.199Z,13.43
2018-06-29T15:33:08.505Z,227.27
2018-06-29T15:35:37.793Z,436.43
2018-06-29T15:38:06.210Z,194.00
2018-06-29T15:40:35.491Z,425.40
2018-06-29T15:43:08.573Z,654.57
2018-06-29T15:45:37.152Z,80.33
2018-06-29T15:48:05.711Z,120.67
2018-06-29T15:50:37.877Z,40.30
2018-06-29T15:53:07.987Z,9.80
2018-06-29T15:55:41.707Z,8.87
2018-06-29T15:58:10.018Z,11.83
2018-06-29T16:00:50.205Z,34.20
2018-06-29T16:03:18.509Z,32.73
2018-06-29T16:05:47.338Z,36.87
2018-06-29T16:08:15.690Z,31.23
2018-06-29T16:10:43.998Z,41.00
2018-06-29T16:13:12.358Z,25.43
2018-06-29T16:15:40.665Z,20.00
2018-06-29T16:18:08.949Z,15.10
2018-06-29T16:20:37.249Z,42.83
2018-06-29T16:23:05.945Z,34.70
2018-06-29T16:25:34.249Z,28.57
2018-06-29T16:28:02.546Z,9.30
2018-06-29T16:30:30.873Z,10.20
2018-06-29T16:32:59.209Z,9.23
2018-06-29T16:35:27.529Z,28.90
2018-06-29T16:37:56.046Z,9.80
2018-06-29T16:40:24.381Z,5.50
2018-06-29T16:42:52.869Z,10.47
2018-06-29T16:45:21.201Z,46.87
2018-06-29T16:47:49.778Z,7.63
2018-06-29T16:50:18.129Z,14.43
2018-06-29T16:52:47.037Z,8.90
2018-06-29T16:55:15.357Z,16.73
2018-06-29T16:57:44.599Z,9.73
2018-06-29T17:00:12.998Z,5.50
2018-06-29T17:02:41.341Z,7.03
2018-06-29T17:05:09.706Z,5.97
2018-06-29T17:07:38.094Z,5.63
2018-06-29T17:10:06.425Z,19.50
2018-06-29T17:12:36.757Z,4.07
2018-06-29T17:15:06.189Z,3.57
2018-06-29T17:17:34.489Z,3.30
2018-06-29T17:20:02.777Z,3.27
2018-06-29T17:22:31.764Z,3.63
2018-06-29T17:25:00.459Z,4.00
2018-06-29T17:27:28.789Z,4.20
2018-06-29T17:29:57.269Z,5.60
2018-06-29T17:32:26.039Z,4.43
2018-06-29T17:34:54.565Z,4.60
2018-06-29T17:37:22.893Z,4.40
2018-06-29T17:39:51.265Z,3.97
2018-06-29T17:42:20.478Z,9.67
2018-06-29T17:44:48.794Z,5.20
2018-06-29T17:47:16.889Z,4.10
2018-06-29T17:49:46.178Z,3.87
2018-06-29T17:52:16.294Z,4.83
2018-06-29T17:54:45.024Z,3.53
2018-06-29T17:57:14.793Z,3.30
2018-06-29T17:59:43.375Z,2.97
2018-06-29T18:02:11.566Z,3.93
2018-06-29T18:04:39.908Z,3.50
2018-06-29T18:07:08.307Z,3.53
2018-06-29T18:09:36.586Z,3.43
2018-06-29T18:12:04.726Z,3.60
2018-06-29T18:14:33.065Z,3.40
2018-06-29T18:17:06.498Z,5.73
2018-06-29T18:19:34.827Z,3.33
2018-06-29T18:22:03.137Z,4.00
2018-06-29T18:24:31.606Z,4.13
2018-06-29T18:26:59.975Z,4.10
2018-06-29T18:29:31.199Z,4.87
2018-06-29T18:32:00.643Z,5.07
2018-06-29T18:34:28.957Z,4.60
2018-06-29T18:36:59.748Z,6.43
2018-06-29T18:39:38.253Z,5.73
2018-06-29T18:42:06.731Z,5.17
2018-06-29T18:44:39.525Z,5.30
2018-06-29T18:47:07.897Z,5.80
2018-06-29T18:49:36.182Z,5.73
2018-06-29T18:52:04.666Z,5.23
2018-06-29T18:54:33.206Z,5.30
2018-06-29T18:57:01.314Z,6.53
2018-06-29T18:59:29.718Z,6.83
2018-06-29T19:01:58.889Z,6.07
2018-06-29T19:04:31.043Z,6.50
2018-06-29T19:07:02.281Z,5.80
2018-06-29T19:09:30.619Z,5.60
2018-06-29T19:11:59.033Z,4.53
2018-06-29T19:14:27.345Z,5.30
2018-06-29T19:16:55.625Z,5.80
2018-06-29T19:19:23.950Z,5.03
2018-06-29T19:21:52.311Z,7.20
2018-06-29T19:24:20.794Z,5.30
2018-06-29T19:26:49.687Z,5.87
2018-06-29T19:29:18.766Z,5.47
2018-06-29T19:31:47.205Z,5.23
2018-06-29T19:34:15.262Z,5.30
2018-06-29T19:36:43.339Z,5.43
2018-06-29T19:39:12.744Z,5.97
2018-06-29T19:41:42.489Z,5.40
2018-06-29T19:44:13.116Z,6.22
2018-06-29T19:46:42.170Z,5.60
2018-06-29T19:49:12.546Z,5.80
2018-06-29T19:51:41.977Z,6.03
2018-06-29T19:54:12.190Z,6.03
2018-06-29T19:56:43.085Z,6.70
2018-06-29T19:59:11.574Z,6.90
2018-06-29T20:01:42.244Z,6.00
2018-06-29T20:04:12.529Z,6.60
2018-06-29T20:06:43.109Z,6.10
2018-06-29T20:09:12.997Z,6.33
2018-06-29T20:11:41.501Z,7.53
2018-06-29T20:14:16.503Z,7.00
2018-06-29T20:17:02.989Z,7.57
2018-06-29T20:19:33.933Z,6.87
2018-06-29T20:22:03.543Z,7.60
2018-06-29T20:24:31.865Z,7.20
2018-06-29T20:27:01.015Z,7.13
2018-06-29T20:29:29.199Z,6.67
2018-06-29T20:31:58.536Z,7.50
2018-06-29T20:34:26.974Z,6.30
2018-06-29T20:36:55.502Z,6.60
2018-06-29T20:39:24.501Z,6.50
2018-06-29T20:41:54.038Z,7.17
2018-06-29T20:44:26.305Z,7.30
2018-06-29T20:46:54.744Z,8.20
2018-06-29T20:49:23.817Z,7.13
2018-06-29T20:51:52.211Z,7.93
2018-06-29T20:54:20.577Z,7.27
2018-06-29T20:56:48.910Z,7.50
2018-06-29T20:59:17.565Z,8.80
2018-06-29T21:01:57.698Z,7.23
2018-06-29T21:04:26.033Z,7.27
2018-06-29T21:06:55.423Z,8.00
2018-06-29T21:09:24.210Z,7.10
2018-06-29T21:11:52.549Z,7.97
2018-06-29T21:14:20.865Z,7.17
2018-06-29T21:16:48.928Z,7.20
2018-06-29T21:19:17.397Z,7.73
2018-06-29T21:21:45.793Z,7.70
2018-06-29T21:24:14.104Z,7.90
2018-06-29T21:26:42.437Z,8.37
2018-06-29T21:29:10.848Z,7.80
2018-06-29T21:31:39.156Z,7.60
2018-06-29T21:34:07.621Z,7.53
2018-06-29T21:36:36.678Z,7.90
2018-06-29T21:39:07.461Z,8.30
2018-06-29T21:41:35.772Z,8.43
2018-06-29T21:44:04.381Z,8.90
2018-06-29T21:46:32.726Z,10.73
2018-06-29T21:49:01.037Z,8.50
2018-06-29T21:51:30.538Z,8.13
2018-06-29T21:53:58.592Z,8.80
2018-06-29T21:56:26.638Z,10.17
2018-06-29T21:58:55.002Z,8.63
2018-06-29T22:01:23.337Z,9.30
2018-06-29T22:03:53.290Z,8.37
2018-06-29T22:06:21.593Z,8.43
2018-06-29T22:08:49.919Z,8.57
2018-06-29T22:11:18.213Z,8.30
2018-06-29T22:13:47.557Z,8.47
2018-06-29T22:16:15.864Z,9.23
2018-06-29T22:18:44.213Z,9.00
2018-06-29T22:21:12.525Z,9.53
2018-06-29T22:23:40.904Z,8.53
2018-06-29T22:26:10.241Z,9.17
2018-06-29T22:28:38.637Z,10.03
2018-06-29T22:31:06.961Z,9.07
2018-06-29T22:33:36.237Z,8.60
2018-06-29T22:36:05.137Z,9.00
2018-06-29T22:38:33.450Z,9.23
2018-06-29T22:41:01.524Z,9.57
2018-06-29T22:43:30.777Z,8.40
2018-06-29T22:45:58.884Z,8.43
2018-06-29T22:48:27.205Z,8.77
2018-06-29T22:50:56.237Z,8.87
2018-06-29T22:53:24.550Z,8.70
2018-06-29T22:55:52.885Z,10.00
2018-06-29T22:58:21.241Z,9.57
2018-06-29T23:00:49.337Z,9.27
2018-06-29T23:03:17.670Z,9.40
2018-06-29T23:05:45.970Z,9.23
2018-06-29T23:08:14.673Z,9.53
2018-06-29T23:10:42.961Z,10.50
2018-06-29T23:13:11.362Z,9.93
2018-06-29T23:15:40.393Z,9.93
2018-06-29T23:18:08.730Z,9.73
2018-06-29T23:20:37.031Z,9.50
2018-06-29T23:23:05.417Z,9.77
2018-06-29T23:25:34.893Z,9.20
2018-06-29T23:28:03.217Z,9.90
2018-06-29T23:30:31.546Z,10.23
2018-06-29T23:33:00.825Z,10.77
2018-06-29T23:35:28.866Z,9.87
2018-06-29T23:37:57.179Z,10.50
2018-06-29T23:40:25.512Z,10.93
2018-06-29T23:42:53.809Z,9.97
2018-06-29T23:45:22.138Z,10.53
2018-06-29T23:47:50.433Z,10.57
2018-06-29T23:50:18.777Z,10.63
2018-06-29T23:52:47.121Z,12.50
2018-06-29T23:55:15.562Z,11.70
2018-06-29T23:57:43.877Z,11.07
